createdAt,value
2022-10-03T00:01:02.567Z,14.80
2022-10-03T00:03:48.003Z,14.80
2022-10-03T00:06:29.863Z,14.80
2022-10-03T00:08:59.442Z,14.80
2022-10-03T00:11:56.860Z,14.80
2022-10-03T00:15:07.677Z,14.80
2022-10-03T00:17:46.303Z,14.80
2022-10-03T00:20:34.041Z,14.80
2022-10-03T00:23:04.133Z,14.80
2022-10-03T00:25:49.264Z,14.80
2022-10-03T00:28:41.095Z,14.80
2022-10-03T00:31:25.086Z,14.80
2022-10-03T00:34:13.789Z,14.80
2022-10-03T00:37:05.793Z,14.80
2022-10-03T00:40:11.956Z,14.80
2022-10-03T00:42:53.295Z,14.80
2022-10-03T00:45:42.392Z,14.80
2022-10-03T00:48:37.520Z,14.80
2022-10-03T00:51:25.969Z,14.80
2022-10-03T00:54:30.877Z,14.80
2022-10-03T00:57:21.381Z,14.70
2022-10-03T01:00:13.403Z,14.70
2022-10-03T01:02:46.684Z,14.70
2022-10-03T01:05:35.751Z,14.70
2022-10-03T01:08:11.992Z,14.60
2022-10-03T01:10:45.409Z,14.60
2022-10-03T01:13:47.653Z,14.60
2022-10-03T01:16:17.919Z,14.60
2022-10-03T01:19:09.914Z,14.60
2022-10-03T01:21:49.711Z,14.60
2022-10-03T01:24:31.895Z,14.60
2022-10-03T01:27:06.505Z,14.60
2022-10-03T01:30:02.577Z,14.60
2022-10-03T01:32:48.783Z,14.50
2022-10-03T01:35:24.426Z,14.50
2022-10-03T01:38:02.651Z,14.50
2022-10-03T01:40:43.168Z,14.50
2022-10-03T01:43:32.275Z,14.50
2022-10-03T01:46:23.112Z,14.50
2022-10-03T01:49:22.224Z,14.50
2022-10-03T01:52:23.189Z,14.50
2022-10-03T01:55:12.585Z,14.50
2022-10-03T01:57:53.813Z,14.50
2022-10-03T02:00:30.737Z,14.50
2022-10-03T02:03:25.313Z,14.50
2022-10-03T02:06:43.787Z,14.60
2022-10-03T02:09:29.025Z,14.50
2022-10-03T02:12:07.449Z,14.50
2022-10-03T02:14:47.259Z,14.50
2022-10-03T02:17:29.388Z,14.50
2022-10-03T02:20:23.711Z,14.50
2022-10-03T02:22:55.067Z,14.50
2022-10-03T02:25:40.929Z,14.50
2022-10-03T02:28:32.473Z,14.40
2022-10-03T02:31:09.393Z,14.40
2022-10-03T02:33:44.463Z,14.40
2022-10-03T02:36:59.715Z,14.40
2022-10-03T02:39:44.945Z,14.40
2022-10-03T02:42:22.907Z,14.40
2022-10-03T02:45:01.884Z,14.40
2022-10-03T02:48:30.865Z,14.30
2022-10-03T02:51:03.738Z,14.30
2022-10-03T02:54:02.772Z,14.30
2022-10-03T02:57:03.292Z,14.30
2022-10-03T02:59:45.271Z,14.20
2022-10-03T03:02:27.238Z,14.20
2022-10-03T03:05:03.360Z,14.20
2022-10-03T03:07:39.437Z,14.20
2022-10-03T03:10:38.377Z,14.20
2022-10-03T03:13:32.788Z,14.20
2022-10-03T03:16:05.508Z,14.20
2022-10-03T03:18:53.692Z,14.20
2022-10-03T03:21:29.536Z,14.20
2022-10-03T03:23:59.853Z,14.20
2022-10-03T03:26:36.003Z,14.20
2022-10-03T03:29:10.268Z,14.20
2022-10-03T03:32:08.648Z,14.20
2022-10-03T03:34:54.784Z,14.20
2022-10-03T03:37:41.262Z,14.20
2022-10-03T03:40:32.344Z,14.20
2022-10-03T03:43:26.584Z,14.20
2022-10-03T03:46:13.502Z,14.20
2022-10-03T03:49:22.075Z,14.20
2022-10-03T03:52:16.973Z,14.30
2022-10-03T03:55:06.267Z,14.30
2022-10-03T03:57:39.664Z,14.30
2022-10-03T04:00:16.241Z,14.30
2022-10-03T04:03:07.707Z,14.30
2022-10-03T04:05:56.751Z,14.30
2022-10-03T04:08:34.089Z,14.30
2022-10-03T04:11:25.788Z,14.30
2022-10-03T04:14:02.065Z,14.40
2022-10-03T04:17:07.959Z,14.30
2022-10-03T04:19:50.896Z,14.40
2022-10-03T04:22:30.339Z,14.40
2022-10-03T04:25:06.687Z,14.40
2022-10-03T04:28:08.629Z,14.40
2022-10-03T04:30:51.559Z,14.40
2022-10-03T04:33:46.658Z,14.30
2022-10-03T04:36:19.563Z,14.40
2022-10-03T04:39:00.809Z,14.30
2022-10-03T04:41:55.423Z,14.30
2022-10-03T04:44:44.051Z,14.30
2022-10-03T04:47:44.953Z,14.30
2022-10-03T04:50:12.202Z,14.30
2022-10-03T04:52:56.826Z,14.30
2022-10-03T04:55:26.870Z,14.30
2022-10-03T04:58:04.686Z,14.30
2022-10-03T05:00:33.550Z,14.20
2022-10-03T05:03:15.653Z,14.20
2022-10-03T05:05:57.143Z,14.20
2022-10-03T05:08:42.352Z,14.20
2022-10-03T05:11:20.074Z,14.30
2022-10-03T05:14:09.241Z,14.20
2022-10-03T05:16:41.182Z,14.20
2022-10-03T05:19:08.433Z,14.20
2022-10-03T05:21:48.996Z,14.20
2022-10-03T05:24:39.964Z,14.20
2022-10-03T05:27:19.539Z,14.20
2022-10-03T05:29:55.599Z,14.30
2022-10-03T05:32:44.368Z,14.30
2022-10-03T05:35:26.542Z,14.30
2022-10-03T05:38:25.002Z,14.40
2022-10-03T05:41:12.551Z,14.40
2022-10-03T05:44:09.696Z,14.40
2022-10-03T05:46:58.835Z,14.40
2022-10-03T05:50:15.296Z,14.40
2022-10-03T05:52:50.840Z,14.50
2022-10-03T05:55:18.685Z,14.50
2022-10-03T05:57:54.676Z,14.50
2022-10-03T06:00:33.020Z,14.50
2022-10-03T06:03:09.323Z,14.50
2022-10-03T06:05:56.633Z,14.50
2022-10-03T06:08:51.394Z,14.50
2022-10-03T06:11:55.992Z,14.50
2022-10-03T06:14:44.774Z,14.50
2022-10-03T06:17:50.879Z,14.50
2022-10-03T06:20:48.294Z,14.50
2022-10-03T06:23:37.518Z,14.50
2022-10-03T06:26:23.797Z,14.40
2022-10-03T06:29:03.028Z,14.40
2022-10-03T06:31:51.789Z,14.40
2022-10-03T06:35:19.764Z,14.40
2022-10-03T06:38:23.661Z,14.40
2022-10-03T06:41:18.453Z,14.50
2022-10-03T06:44:13.707Z,14.50
2022-10-03T06:47:05.673Z,14.50
2022-10-03T06:49:49.376Z,14.50
2022-10-03T06:52:31.848Z,14.60
2022-10-03T06:55:17.435Z,14.60
2022-10-03T06:58:08.554Z,14.70
2022-10-03T07:01:14.013Z,14.70
2022-10-03T07:03:53.292Z,14.80
2022-10-03T07:06:49.091Z,14.80
2022-10-03T07:10:01.386Z,14.80
2022-10-03T07:12:48.076Z,14.90
2022-10-03T07:16:02.124Z,15.00
2022-10-03T07:19:09.414Z,15.00
2022-10-03T07:21:51.996Z,15.00
2022-10-03T07:25:04.200Z,15.00
2022-10-03T07:27:51.492Z,15.10
2022-10-03T07:30:28.561Z,15.10
2022-10-03T07:33:22.463Z,15.20
2022-10-03T07:36:39.113Z,15.20
2022-10-03T07:39:44.460Z,15.20
2022-10-03T07:42:29.964Z,15.30
2022-10-03T07:45:08.769Z,15.30
2022-10-03T07:48:13.282Z,15.40
2022-10-03T07:51:13.372Z,15.40
2022-10-03T07:54:08.154Z,15.50
2022-10-03T07:57:15.430Z,15.50
2022-10-03T08:00:01.533Z,15.60
2022-10-03T08:03:12.641Z,15.60
2022-10-03T08:05:58.516Z,15.70
2022-10-03T08:08:40.351Z,15.70
2022-10-03T08:11:32.091Z,15.70
2022-10-03T08:14:08.566Z,15.70
2022-10-03T08:17:01.879Z,15.80
2022-10-03T08:19:38.275Z,15.80
2022-10-03T08:22:10.099Z,15.80
2022-10-03T08:25:00.618Z,15.90
2022-10-03T08:27:40.144Z,15.90
2022-10-03T08:30:45.656Z,15.90
2022-10-03T08:33:24.760Z,16.00
2022-10-03T08:36:45.362Z,16.10
2022-10-03T08:39:32.909Z,16.10
2022-10-03T08:42:29.010Z,16.10
2022-10-03T08:45:13.921Z,16.10
2022-10-03T08:47:53.307Z,16.10
2022-10-03T08:50:25.905Z,16.10
2022-10-03T08:53:38.986Z,16.10
2022-10-03T08:56:26.119Z,16.10
2022-10-03T08:59:31.141Z,16.10
2022-10-03T09:02:22.749Z,16.10
2022-10-03T09:05:16.824Z,16.10
2022-10-03T09:08:08.656Z,16.10
2022-10-03T09:10:35.965Z,16.10
2022-10-03T09:13:40.879Z,16.20
2022-10-03T09:16:29.397Z,16.20
2022-10-03T09:19:22.716Z,16.20
2022-10-03T09:22:22.919Z,16.30
2022-10-03T09:25:02.024Z,16.40
2022-10-03T09:27:50.693Z,16.40
2022-10-03T09:31:11.198Z,16.50
2022-10-03T09:34:13.603Z,16.50
2022-10-03T09:36:59.283Z,16.50
2022-10-03T09:39:50.779Z,16.50
2022-10-03T09:42:52.416Z,16.50
2022-10-03T09:45:47.057Z,16.50
2022-10-03T09:48:32.781Z,16.50
2022-10-03T09:51:17.826Z,16.50
2022-10-03T09:54:05.475Z,16.70
2022-10-03T09:56:47.818Z,16.80
2022-10-03T10:00:05.971Z,17.00
2022-10-03T10:02:53.585Z,17.20
2022-10-03T10:05:39.526Z,17.30
2022-10-03T10:08:27.727Z,17.30
2022-10-03T10:11:00.539Z,17.40
2022-10-03T10:14:07.667Z,17.50
2022-10-03T10:16:45.733Z,17.50
2022-10-03T10:19:48.758Z,17.60
2022-10-03T10:22:47.032Z,17.60
2022-10-03T10:25:38.139Z,17.70
2022-10-03T10:28:27.042Z,17.70
2022-10-03T10:31:32.876Z,17.60
2022-10-03T10:34:15.595Z,17.60
2022-10-03T10:37:10.680Z,17.50
2022-10-03T10:40:02.406Z,17.50
2022-10-03T10:42:48.304Z,17.40
2022-10-03T10:45:41.274Z,17.30
2022-10-03T10:48:29.835Z,17.30
2022-10-03T10:51:21.183Z,17.30
2022-10-03T10:54:00.549Z,17.20
2022-10-03T10:56:34.465Z,17.20
2022-10-03T10:59:35.244Z,17.20
2022-10-03T11:02:25.968Z,17.10
2022-10-03T11:05:29.807Z,17.00
2022-10-03T11:08:15.865Z,17.00
2022-10-03T11:11:01.645Z,16.90
2022-10-03T11:14:08.683Z,16.90
2022-10-03T11:17:24.540Z,16.80
2022-10-03T11:20:39.024Z,16.70
2022-10-03T11:23:30.652Z,16.70
2022-10-03T11:26:30.124Z,16.70
2022-10-03T11:29:31.468Z,16.70
2022-10-03T11:32:35.891Z,16.70
2022-10-03T11:35:17.755Z,16.80
2022-10-03T11:38:06.244Z,16.80
2022-10-03T11:40:42.048Z,16.90
2022-10-03T11:43:49.002Z,16.90
2022-10-03T11:46:36.050Z,17.00
2022-10-03T11:49:54.906Z,17.10
2022-10-03T11:52:37.335Z,17.20
2022-10-03T11:55:04.579Z,17.20
2022-10-03T11:57:39.072Z,17.20
2022-10-03T12:00:18.044Z,17.30
2022-10-03T12:02:45.611Z,17.40
2022-10-03T12:05:27.340Z,17.50
2022-10-03T12:08:23.420Z,17.70
2022-10-03T12:11:20.671Z,18.00
2022-10-03T12:14:10.958Z,18.30
2022-10-03T12:17:05.812Z,18.80
2022-10-03T12:19:56.540Z,19.40
2022-10-03T12:22:38.909Z,20.00
2022-10-03T12:25:30.231Z,20.60
2022-10-03T12:28:02.189Z,21.10
2022-10-03T12:31:00.855Z,21.40
2022-10-03T12:33:40.132Z,21.70
2022-10-03T12:36:19.336Z,21.80
2022-10-03T12:38:52.472Z,21.80
2022-10-03T12:41:40.786Z,21.70
2022-10-03T12:44:45.484Z,21.50
2022-10-03T12:47:54.946Z,21.20
2022-10-03T12:50:43.280Z,20.80
2022-10-03T12:53:16.261Z,20.50
2022-10-03T12:56:09.221Z,20.30
2022-10-03T12:59:11.796Z,20.00
2022-10-03T13:01:44.984Z,19.90
2022-10-03T13:04:27.956Z,19.70
2022-10-03T13:07:19.438Z,19.60
2022-10-03T13:10:05.479Z,19.50
2022-10-03T13:12:41.565Z,19.40
2022-10-03T13:15:40.516Z,19.30
2022-10-03T13:18:18.466Z,19.30
2022-10-03T13:21:55.070Z,19.20
2022-10-03T13:24:37.023Z,19.10
2022-10-03T13:27:17.046Z,19.10
2022-10-03T13:29:55.657Z,19.00
2022-10-03T13:32:28.660Z,18.90
2022-10-03T13:35:37.264Z,18.90
2022-10-03T13:38:32.644Z,18.80
2022-10-03T13:41:26.963Z,18.80
2022-10-03T13:44:13.433Z,18.80
2022-10-03T13:46:55.429Z,18.80
2022-10-03T13:49:38.449Z,18.70
2022-10-03T13:52:36.244Z,18.70
2022-10-03T13:55:22.365Z,18.70
2022-10-03T13:58:27.553Z,18.70
2022-10-03T14:01:13.748Z,18.70
2022-10-03T14:03:52.773Z,18.70
2022-10-03T14:06:36.751Z,18.80
2022-10-03T14:09:26.527Z,18.80
2022-10-03T14:12:33.170Z,18.80
2022-10-03T14:15:41.442Z,18.80
2022-10-03T14:18:11.831Z,18.80
2022-10-03T14:21:17.779Z,18.80
2022-10-03T14:24:06.264Z,18.80
2022-10-03T14:26:59.266Z,18.80
2022-10-03T14:29:38.492Z,18.80
2022-10-03T14:32:47.409Z,18.70
2022-10-03T14:35:41.908Z,18.70
2022-10-03T14:38:48.262Z,18.60
2022-10-03T14:41:39.241Z,18.50
2022-10-03T14:44:26.870Z,18.60
2022-10-03T14:47:13.620Z,18.50
2022-10-03T14:49:56.418Z,18.40
2022-10-03T14:52:38.380Z,18.40
2022-10-03T14:55:13.634Z,18.40
2022-10-03T14:58:08.696Z,18.30
2022-10-03T15:00:47.153Z,18.30
2022-10-03T15:03:17.252Z,18.30
2022-10-03T15:06:00.081Z,18.20
2022-10-03T15:08:37.899Z,18.20
2022-10-03T15:11:10.147Z,18.10
2022-10-03T15:13:57.855Z,18.10
2022-10-03T15:16:26.775Z,18.00
2022-10-03T15:19:04.911Z,18.00
2022-10-03T15:21:34.715Z,18.00
2022-10-03T15:24:07.670Z,17.90
2022-10-03T15:26:37.412Z,17.80
2022-10-03T15:29:07.379Z,17.80
2022-10-03T15:31:45.723Z,17.80
2022-10-03T15:34:31.904Z,17.80
2022-10-03T15:37:10.881Z,17.70
2022-10-03T15:39:42.109Z,17.70
2022-10-03T15:42:09.340Z,17.70
2022-10-03T15:45:08.196Z,17.60
2022-10-03T15:47:43.095Z,17.60
2022-10-03T15:50:27.805Z,17.60
2022-10-03T15:53:12.358Z,17.50
2022-10-03T15:56:11.326Z,17.50
2022-10-03T15:58:55.167Z,17.50
2022-10-03T16:01:26.041Z,17.50
2022-10-03T16:04:20.694Z,17.50
2022-10-03T16:07:09.504Z,17.40
2022-10-03T16:09:52.244Z,17.40
2022-10-03T16:13:00.645Z,17.40
2022-10-03T16:15:43.526Z,17.40
2022-10-03T16:18:18.370Z,17.30
2022-10-03T16:21:05.328Z,17.30
2022-10-03T16:23:37.828Z,17.30
2022-10-03T16:26:08.124Z,17.30
2022-10-03T16:28:50.622Z,17.30
2022-10-03T16:31:28.770Z,17.30
2022-10-03T16:34:08.282Z,17.20
2022-10-03T16:36:43.658Z,17.20
2022-10-03T16:39:32.762Z,17.20
2022-10-03T16:42:12.260Z,17.10
2022-10-03T16:44:52.113Z,17.10
2022-10-03T16:47:30.400Z,17.10
2022-10-03T16:50:18.328Z,17.10
2022-10-03T16:52:50.030Z,17.00
2022-10-03T16:55:37.282Z,17.00
2022-10-03T16:58:34.406Z,17.00
2022-10-03T17:01:38.134Z,16.90
2022-10-03T17:04:23.536Z,16.90
2022-10-03T17:06:55.318Z,16.90
2022-10-03T17:09:42.046Z,16.90
2022-10-03T17:12:21.223Z,16.80
2022-10-03T17:14:53.572Z,16.80
2022-10-03T17:18:15.862Z,16.70
2022-10-03T17:20:48.218Z,16.70
2022-10-03T17:23:35.806Z,16.80
2022-10-03T17:26:08.716Z,16.70
2022-10-03T17:28:54.636Z,16.70
2022-10-03T17:31:28.994Z,16.60
2022-10-03T17:34:04.246Z,16.50
2022-10-03T17:36:43.396Z,16.50
2022-10-03T17:39:47.264Z,16.40
2022-10-03T17:42:35.967Z,16.40
2022-10-03T17:45:16.712Z,16.30
2022-10-03T17:47:52.174Z,16.30
2022-10-03T17:50:25.699Z,16.20
2022-10-03T17:52:54.841Z,16.20
2022-10-03T17:55:38.035Z,16.10
2022-10-03T17:58:12.256Z,16.00
2022-10-03T18:01:16.618Z,16.00
2022-10-03T18:04:02.034Z,16.00
2022-10-03T18:06:32.429Z,15.90
2022-10-03T18:09:07.353Z,15.90
2022-10-03T18:11:39.076Z,15.80
2022-10-03T18:14:32.190Z,15.80
2022-10-03T18:17:37.180Z,15.80
2022-10-03T18:20:49.109Z,15.80
2022-10-03T18:23:50.015Z,15.70
2022-10-03T18:26:31.674Z,15.70
2022-10-03T18:29:56.836Z,15.70
2022-10-03T18:32:29.823Z,15.60
2022-10-03T18:35:20.272Z,15.60
2022-10-03T18:37:58.445Z,15.60
2022-10-03T18:40:42.351Z,15.50
2022-10-03T18:43:25.581Z,15.50
2022-10-03T18:46:09.608Z,15.40
2022-10-03T18:49:33.457Z,15.40
2022-10-03T18:52:21.614Z,15.30
2022-10-03T18:55:32.542Z,15.30
2022-10-03T18:58:00.475Z,15.30
2022-10-03T19:00:31.530Z,15.20
2022-10-03T19:03:26.386Z,15.20
2022-10-03T19:06:05.933Z,15.10
2022-10-03T19:08:38.976Z,15.10
2022-10-03T19:11:21.725Z,15.10
2022-10-03T19:13:58.289Z,15.10
2022-10-03T19:16:53.721Z,15.00
2022-10-03T19:19:55.394Z,15.00
2022-10-03T19:22:32.996Z,14.90
2022-10-03T19:25:04.539Z,14.90
2022-10-03T19:28:05.216Z,14.80
2022-10-03T19:30:35.191Z,14.80
2022-10-03T19:33:23.478Z,14.80
2022-10-03T19:35:55.289Z,14.80
2022-10-03T19:38:32.910Z,14.70
2022-10-03T19:41:21.209Z,14.70
2022-10-03T19:43:50.208Z,14.70
2022-10-03T19:46:23.657Z,14.60
2022-10-03T19:49:25.549Z,14.60
2022-10-03T19:52:28.891Z,14.60
2022-10-03T19:55:01.586Z,14.60
2022-10-03T19:57:45.589Z,14.60
2022-10-03T20:00:18.423Z,14.60
2022-10-03T20:02:57.404Z,14.60
2022-10-03T20:05:32.027Z,14.60
2022-10-03T20:08:19.379Z,14.50
2022-10-03T20:10:58.692Z,14.50
2022-10-03T20:13:26.172Z,14.50
2022-10-03T20:15:57.214Z,14.50
2022-10-03T20:18:25.895Z,14.50
2022-10-03T20:20:56.360Z,14.50
2022-10-03T20:23:26.129Z,14.40
2022-10-03T20:26:05.257Z,14.50
2022-10-03T20:29:07.790Z,14.40
2022-10-03T20:31:36.726Z,14.30
2022-10-03T20:34:12.738Z,14.40
2022-10-03T20:36:47.552Z,14.30
2022-10-03T20:39:31.571Z,14.20
2022-10-03T20:42:04.431Z,14.30
2022-10-03T20:44:49.939Z,14.20
2022-10-03T20:47:56.720Z,14.20
2022-10-03T20:50:24.094Z,14.20
2022-10-03T20:53:01.130Z,14.20
2022-10-03T20:55:57.364Z,14.10
2022-10-03T20:58:24.738Z,14.10
2022-10-03T21:01:16.447Z,14.10
2022-10-03T21:03:48.733Z,14.10
2022-10-03T21:06:27.093Z,14.10
2022-10-03T21:08:58.104Z,14.10
2022-10-03T21:11:31.660Z,14.10
2022-10-03T21:14:15.508Z,14.10
2022-10-03T21:16:51.674Z,14.10
2022-10-03T21:19:42.813Z,14.10
2022-10-03T21:22:23.546Z,14.10
2022-10-03T21:24:54.591Z,14.20
2022-10-03T21:27:25.564Z,14.20
2022-10-03T21:29:54.833Z,14.20
2022-10-03T21:32:25.220Z,14.20
2022-10-03T21:35:13.789Z,14.20
2022-10-03T21:37:55.216Z,14.30
2022-10-03T21:40:28.285Z,14.30
2022-10-03T21:43:19.918Z,14.30
2022-10-03T21:45:50.263Z,14.30
2022-10-03T21:48:54.201Z,14.30
2022-10-03T21:51:28.653Z,14.30
2022-10-03T21:54:29.523Z,14.40
2022-10-03T21:57:43.337Z,14.40
2022-10-03T22:00:25.298Z,14.40
2022-10-03T22:03:06.264Z,14.40
2022-10-03T22:05:50.021Z,14.40
2022-10-03T22:08:33.654Z,14.40
2022-10-03T22:11:32.176Z,14.40
2022-10-03T22:14:14.566Z,14.40
2022-10-03T22:16:49.133Z,14.40
2022-10-03T22:19:19.933Z,14.40
2022-10-03T22:21:55.381Z,14.40
2022-10-03T22:25:01.237Z,14.40
2022-10-03T22:27:52.045Z,14.40
2022-10-03T22:30:21.283Z,14.40
2022-10-03T22:33:03.422Z,14.40
2022-10-03T22:35:30.672Z,14.40
2022-10-03T22:37:58.230Z,14.40
2022-10-03T22:40:27.339Z,14.40
2022-10-03T22:43:01.124Z,14.40
2022-10-03T22:45:30.158Z,14.40
2022-10-03T22:48:01.352Z,14.40
2022-10-03T22:50:33.272Z,14.40
2022-10-03T22:53:02.384Z,14.40
2022-10-03T22:55:30.561Z,14.40
2022-10-03T22:58:01.779Z,14.50
2022-10-03T23:00:33.270Z,14.40
2022-10-03T23:03:10.980Z,14.40
2022-10-03T23:06:09.136Z,14.40
2022-10-03T23:08:45.111Z,14.40
2022-10-03T23:11:26.875Z,14.40
2022-10-03T23:13:55.890Z,14.40
2022-10-03T23:16:37.712Z,14.50
2022-10-03T23:19:21.077Z,14.50
2022-10-03T23:21:53.042Z,14.40
2022-10-03T23:24:29.649Z,14.40
2022-10-03T23:27:23.101Z,14.40
2022-10-03T23:30:25.925Z,14.40
2022-10-03T23:33:00.527Z,14.40
2022-10-03T23:35:33.864Z,14.40
2022-10-03T23:38:01.797Z,14.40
2022-10-03T23:40:39.851Z,14.30
2022-10-03T23:43:25.885Z,14.30
2022-10-03T23:45:57.467Z,14.30
2022-10-03T23:48:26.721Z,14.30
2022-10-03T23:51:06.666Z,14.30
2022-10-03T23:53:41.783Z,14.20
2022-10-03T23:56:21.410Z,14.20
2022-10-03T23:59:03.496Z,14.20
